Time;durP1;ratioP1;P1;durP2;ratioP2;P2;SDS_P1;SDS_P2;PMS_P1;PMS_P2;Temp;Humidity;BMP_temperature;BMP_pressure;BME280_temperature;BME280_humidity;BME280_pressure;Samples;Min_cycle;Max_cycle;Signal;HPM_P1;HPM_P2
2023/07/27 00:02:22;;;;;;;6.90;5.50;;;13.40;92.20;;;;;;5073378;28;20210;-88
2023/07/27 00:04:48;;;;;;;6.47;5.43;;;13.40;92.40;;;;;;5073310;28;20199;-87
2023/07/27 00:07:14;;;;;;;6.53;5.97;;;13.40;92.50;;;;;;5074396;28;20172;-87
2023/07/27 00:09:39;;;;;;;8.73;6.13;;;13.40;92.50;;;;;;5073107;28;20179;-87
2023/07/27 00:12:05;;;;;;;6.63;5.80;;;13.40;92.60;;;;;;5073084;28;20203;-87
2023/07/27 00:14:31;;;;;;;7.03;6.40;;;13.40;92.60;;;;;;5072930;28;20201;-87
2023/07/27 00:16:56;;;;;;;6.73;6.07;;;13.50;92.60;;;;;;5073284;28;20172;-87
2023/07/27 00:19:22;;;;;;;10.40;6.57;;;13.50;92.60;;;;;;5073119;28;20172;-87
2023/07/27 00:21:47;;;;;;;11.17;6.63;;;13.50;92.60;;;;;;5072722;28;20195;-87
2023/07/27 00:24:13;;;;;;;7.13;6.43;;;13.50;92.60;;;;;;5074048;28;20199;-87
2023/07/27 00:26:39;;;;;;;7.10;6.33;;;13.50;92.70;;;;;;5072651;28;20175;-86
2023/07/27 00:29:04;;;;;;;9.00;6.47;;;13.50;92.80;;;;;;5074025;28;20167;-87
2023/07/27 00:31:30;;;;;;;7.30;6.70;;;13.50;92.80;;;;;;5072674;28;20175;-87
2023/07/27 00:33:55;;;;;;;7.00;6.30;;;13.50;92.80;;;;;;5072558;28;20191;-87
2023/07/27 00:36:21;;;;;;;10.47;7.07;;;13.50;92.90;;;;;;5073667;28;20654;-88
2023/07/27 00:38:46;;;;;;;12.97;8.40;;;13.50;92.90;;;;;;5072467;28;20197;-88
2023/07/27 00:41:12;;;;;;;9.10;6.87;;;13.50;92.80;;;;;;5072492;28;20190;-88
2023/07/27 00:43:37;;;;;;;9.33;7.50;;;13.50;92.70;;;;;;5072559;28;20285;-87
2023/07/27 00:46:03;;;;;;;8.60;7.67;;;13.50;92.70;;;;;;5073755;28;20182;-88
2023/07/27 00:48:29;;;;;;;8.53;7.73;;;13.50;92.70;;;;;;5073402;28;20180;-88
2023/07/27 00:50:55;;;;;;;11.30;7.93;;;13.50;92.80;;;;;;5072296;28;20194;-88
2023/07/27 00:53:21;;;;;;;11.53;7.87;;;13.50;92.80;;;;;;5072343;28;20199;-88
2023/07/27 00:55:46;;;;;;;11.50;8.40;;;13.50;92.80;;;;;;5072273;28;20178;-88
2023/07/27 00:58:13;;;;;;;8.77;7.93;;;13.50;92.80;;;;;;5072198;28;20173;-88
2023/07/27 01:00:41;;;;;;;9.20;8.33;;;13.50;92.80;;;;;;5072270;28;20600;-88
2023/07/27 01:03:07;;;;;;;11.27;8.70;;;13.50;92.80;;;;;;5072307;28;20262;-87
2023/07/27 01:05:32;;;;;;;11.40;9.00;;;13.60;92.80;;;;;;5071941;28;20234;-88
2023/07/27 01:07:58;;;;;;;11.20;8.87;;;13.60;92.70;;;;;;5073662;28;20254;-89
2023/07/27 01:10:33;;;;;;;11.57;9.07;;;13.70;92.50;;;;;;5072205;28;20640;-89
2023/07/27 01:13:06;;;;;;;15.97;9.10;;;13.70;92.30;;;;;;5072089;28;20195;-87
2023/07/27 01:15:37;;;;;;;13.97;9.40;;;13.70;92.20;;;;;;5072938;28;20203;-87
2023/07/27 01:18:24;;;;;;;13.37;8.93;;;13.70;92.10;;;;;;5072017;28;20220;-87
2023/07/27 01:20:53;;;;;;;14.47;9.03;;;13.70;92.00;;;;;;5072138;28;20183;-89
2023/07/27 01:23:43;;;;;;;16.57;9.00;;;13.70;91.90;;;;;;5073444;28;20186;-87
2023/07/27 01:26:34;;;;;;;13.23;8.87;;;13.70;91.80;;;;;;5071964;28;20175;-87
2023/07/27 01:29:24;;;;;;;10.80;8.67;;;13.70;91.90;;;;;;5071904;28;20650;-88
2023/07/27 01:31:52;;;;;;;13.37;9.23;;;13.70;92.00;;;;;;5071742;28;20187;-87
2023/07/27 01:34:23;;;;;;;14.90;9.77;;;13.70;92.00;;;;;;5071913;28;20191;-88
2023/07/27 01:36:56;;;;;;;14.00;9.37;;;13.60;92.00;;;;;;5071983;28;20190;-88
2023/07/27 01:39:24;;;;;;;13.30;9.10;;;13.60;91.90;;;;;;5072100;28;20217;-88
2023/07/27 01:41:53;;;;;;;10.73;9.27;;;13.60;91.80;;;;;;5072079;28;20179;-88
2023/07/27 01:44:19;;;;;;;12.13;9.27;;;13.50;91.70;;;;;;5073082;28;20187;-88
2023/07/27 01:46:45;;;;;;;12.80;9.77;;;13.60;91.50;;;;;;5071759;28;20175;-88
2023/07/27 01:49:13;;;;;;;16.03;10.67;;;13.50;91.50;;;;;;5075152;28;20206;-88
2023/07/27 01:51:39;;;;;;;12.50;9.70;;;13.30;91.70;;;;;;5075819;28;20566;-88
2023/07/27 01:54:07;;;;;;;15.77;9.63;;;13.30;91.80;;;;;;5075684;28;20553;-88
2023/07/27 01:56:33;;;;;;;13.23;9.73;;;13.30;91.90;;;;;;5075895;28;20179;-87
2023/07/27 01:59:01;;;;;;;13.63;9.93;;;13.20;92.00;;;;;;5075860;28;20266;-87
2023/07/27 02:01:28;;;;;;;15.50;9.80;;;13.20;92.00;;;;;;5076847;28;20179;-88
2023/07/27 02:03:53;;;;;;;12.77;10.40;;;13.00;92.10;;;;;;5075596;28;20199;-88
2023/07/27 02:06:19;;;;;;;12.80;10.47;;;13.00;92.20;;;;;;5076652;28;20183;-88
2023/07/27 02:08:45;;;;;;;21.03;10.80;;;13.00;92.20;;;;;;5075863;28;20249;-88
2023/07/27 02:11:11;;;;;;;15.10;10.53;;;12.90;92.30;;;;;;5075652;28;20712;-88
2023/07/27 02:13:51;;;;;;;19.57;10.53;;;12.80;92.40;;;;;;5075355;28;20307;-88
2023/07/27 02:16:28;;;;;;;15.70;10.10;;;12.80;92.40;;;;;;5076558;28;20166;-87
2023/07/27 02:18:55;;;;;;;18.80;10.80;;;12.80;92.50;;;;;;5075827;28;20160;-88
2023/07/27 02:21:22;;;;;;;18.80;11.63;;;12.80;92.50;;;;;;5075431;28;20189;-88
2023/07/27 02:23:48;;;;;;;19.83;10.93;;;12.80;92.60;;;;;;5076275;28;20191;-88
2023/07/27 02:26:15;;;;;;;14.90;11.30;;;12.80;92.70;;;;;;5075208;28;20210;-88
2023/07/27 02:28:42;;;;;;;15.47;10.80;;;12.70;92.80;;;;;;5074932;28;20266;-88
2023/07/27 02:31:07;;;;;;;17.83;11.07;;;12.60;92.90;;;;;;5075052;28;20183;-88
2023/07/27 02:33:32;;;;;;;15.87;11.30;;;12.60;93.00;;;;;;5074740;28;20211;-88
2023/07/27 02:35:58;;;;;;;16.80;11.97;;;12.50;93.10;;;;;;5075325;28;20183;-88
2023/07/27 02:38:23;;;;;;;19.30;12.13;;;12.50;93.30;;;;;;5074864;28;20172;-88
2023/07/27 02:40:50;;;;;;;22.30;12.70;;;12.40;93.40;;;;;;5074875;28;20224;-88
2023/07/27 02:43:15;;;;;;;16.37;12.33;;;12.30;93.50;;;;;;5074932;28;20304;-87
2023/07/27 02:45:41;;;;;;;21.27;12.90;;;12.30;93.60;;;;;;5075044;28;20209;-88
2023/07/27 02:48:06;;;;;;;15.93;11.80;;;12.30;93.80;;;;;;5074890;28;20202;-88
2023/07/27 02:50:32;;;;;;;30.37;13.90;;;12.30;93.80;;;;;;5074756;28;20175;-88
2023/07/27 02:52:57;;;;;;;19.03;12.70;;;12.30;93.90;;;;;;5074549;28;20203;-88
2023/07/27 02:55:23;;;;;;;21.27;13.10;;;12.30;93.90;;;;;;5075744;28;20202;-88
2023/07/27 02:57:48;;;;;;;20.20;13.77;;;12.30;93.90;;;;;;5074588;28;20182;-88
2023/07/27 03:00:14;;;;;;;22.20;13.53;;;12.30;93.90;;;;;;5074553;28;20167;-88
2023/07/27 03:02:39;;;;;;;17.67;13.73;;;12.30;93.90;;;;;;5075718;28;20207;-88
2023/07/27 03:05:05;;;;;;;21.87;13.13;;;12.30;93.90;;;;;;5075621;28;20255;-88
2023/07/27 03:07:31;;;;;;;17.83;13.43;;;12.30;93.90;;;;;;5075028;28;20593;-88
2023/07/27 03:09:57;;;;;;;28.13;13.70;;;12.30;93.90;;;;;;5075565;28;20273;-88
2023/07/27 03:12:22;;;;;;;21.20;13.87;;;12.30;93.90;;;;;;5074300;28;20195;-88
2023/07/27 03:14:48;;;;;;;21.00;13.90;;;12.30;93.80;;;;;;5074578;28;20194;-88
2023/07/27 03:17:14;;;;;;;23.33;13.50;;;12.30;93.70;;;;;;5075753;28;20164;-88
2023/07/27 03:19:39;;;;;;;18.73;13.70;;;12.30;93.70;;;;;;5074234;28;20175;-88
2023/07/27 03:22:05;;;;;;;20.27;14.10;;;12.20;93.70;;;;;;5074082;28;20580;-88
2023/07/27 03:24:32;;;;;;;22.30;14.50;;;12.20;93.70;;;;;;5074498;28;20222;-88
2023/07/27 03:26:57;;;;;;;20.93;14.20;;;12.20;93.70;;;;;;5074625;28;20537;-88
2023/07/27 03:29:23;;;;;;;23.80;14.13;;;12.20;93.70;;;;;;5074001;28;20270;-88
2023/07/27 03:31:48;;;;;;;20.90;14.50;;;12.10;93.70;;;;;;5075152;28;20182;-88
2023/07/27 03:34:14;;;;;;;21.00;13.30;;;12.10;93.70;;;;;;5073856;28;20195;-88
2023/07/27 03:36:39;;;;;;;27.43;14.90;;;12.10;93.80;;;;;;5073927;28;20549;-88
2023/07/27 03:39:05;;;;;;;17.83;13.70;;;12.10;93.80;;;;;;5073785;28;20167;-88
2023/07/27 03:41:31;;;;;;;17.87;14.07;;;12.20;93.80;;;;;;5073884;28;20194;-88
2023/07/27 03:43:56;;;;;;;21.10;14.33;;;12.20;93.80;;;;;;5073735;28;20191;-88
2023/07/27 03:46:22;;;;;;;17.07;13.93;;;12.30;93.80;;;;;;5075177;28;20163;-88
2023/07/27 03:48:48;;;;;;;18.70;13.63;;;12.60;94.00;;;;;;5073576;28;20171;-88
2023/07/27 03:51:14;;;;;;;20.07;14.23;;;13.00;94.10;;;;;;5073615;28;20171;-88
2023/07/27 03:53:40;;;;;;;17.10;12.97;;;13.20;93.80;;;;;;5074567;28;20207;-88
2023/07/27 03:56:06;;;;;;;31.37;14.30;;;13.30;93.40;;;;;;5073599;28;20258;-87
2023/07/27 03:58:32;;;;;;;15.43;13.97;;;13.30;92.60;;;;;;5073610;28;20172;-88
2023/07/27 04:00:57;;;;;;;18.13;14.87;;;13.20;92.00;;;;;;5074303;28;20297;-88
2023/07/27 04:03:23;;;;;;;18.57;14.80;;;13.20;91.60;;;;;;5074535;28;20182;-88
2023/07/27 04:05:50;;;;;;;15.17;13.67;;;13.30;91.40;;;;;;5073363;28;20658;-88
2023/07/27 04:08:16;;;;;;;20.70;14.07;;;13.50;91.00;;;;;;5073548;28;20268;-88
2023/07/27 04:10:41;;;;;;;15.47;13.87;;;13.40;90.60;;;;;;5072956;28;20655;-88
2023/07/27 04:13:07;;;;;;;16.33;14.73;;;13.40;90.40;;;;;;5073420;28;20601;-87
2023/07/27 04:15:34;;;;;;;15.53;13.93;;;13.30;90.30;;;;;;5073158;28;20187;-88
2023/07/27 04:17:59;;;;;;;16.77;14.23;;;13.30;90.30;;;;;;5073069;28;20225;-88
2023/07/27 04:20:25;;;;;;;16.03;14.23;;;13.20;89.90;;;;;;5073066;28;20171;-88
2023/07/27 04:22:50;;;;;;;19.33;14.53;;;13.00;90.10;;;;;;5073032;28;20193;-88
2023/07/27 04:25:16;;;;;;;15.83;14.13;;;12.80;90.60;;;;;;5072746;28;20298;-88
2023/07/27 04:27:41;;;;;;;17.47;14.87;;;12.90;90.80;;;;;;5073223;28;20274;-88
2023/07/27 04:30:07;;;;;;;15.73;14.03;;;13.00;91.00;;;;;;5072892;28;20175;-88
2023/07/27 04:32:33;;;;;;;16.00;14.30;;;12.90;91.10;;;;;;5074315;28;20694;-88
2023/07/27 04:34:58;;;;;;;17.93;13.57;;;13.10;91.20;;;;;;5072749;28;20696;-88
2023/07/27 04:37:24;;;;;;;16.60;13.97;;;13.10;91.20;;;;;;5072981;28;20192;-88
2023/07/27 04:39:49;;;;;;;16.73;14.93;;;13.20;91.30;;;;;;5073000;28;20251;-88
2023/07/27 04:42:15;;;;;;;19.07;15.23;;;13.20;91.20;;;;;;5072638;28;20178;-88
2023/07/27 04:44:40;;;;;;;16.37;14.87;;;13.30;91.20;;;;;;5072552;28;20195;-88
2023/07/27 04:47:06;;;;;;;17.13;15.17;;;13.30;91.20;;;;;;5072732;28;20175;-88
2023/07/27 04:49:31;;;;;;;17.87;14.87;;;13.30;91.20;;;;;;5072922;28;20634;-88
2023/07/27 04:51:57;;;;;;;24.10;22.07;;;13.30;91.30;;;;;;5072644;28;20199;-88
2023/07/27 04:54:23;;;;;;;27.40;24.90;;;13.30;91.30;;;;;;5072613;28;20202;-88
2023/07/27 04:56:48;;;;;;;25.17;22.90;;;13.40;91.50;;;;;;5072577;28;20195;-88
2023/07/27 04:59:14;;;;;;;24.83;22.67;;;13.40;91.50;;;;;;5073761;28;20172;-88
2023/07/27 05:01:39;;;;;;;25.17;23.00;;;13.30;91.70;;;;;;5072544;28;20245;-88
2023/07/27 05:04:05;;;;;;;25.00;22.40;;;13.40;91.90;;;;;;5072421;28;20591;-88
2023/07/27 05:06:30;;;;;;;25.20;22.90;;;13.50;92.00;;;;;;5073665;28;20184;-88
2023/07/27 05:08:56;;;;;;;16.93;14.63;;;13.40;92.20;;;;;;5073024;28;20179;-88
2023/07/27 05:11:21;;;;;;;17.37;15.50;;;13.50;92.30;;;;;;5073643;28;20175;-88
2023/07/27 05:13:47;;;;;;;17.27;15.10;;;13.50;92.40;;;;;;5072990;28;20316;-88
2023/07/27 05:16:12;;;;;;;17.67;15.83;;;13.50;92.50;;;;;;5072176;28;20179;-88
2023/07/27 05:18:38;;;;;;;19.37;16.00;;;13.50;92.60;;;;;;5072132;28;20167;-88
2023/07/27 05:21:04;;;;;;;20.97;15.87;;;13.50;92.60;;;;;;5072284;28;20183;-88
2023/07/27 05:23:29;;;;;;;21.77;16.27;;;13.50;92.60;;;;;;5071347;28;20559;-88
2023/07/27 05:25:55;;;;;;;18.53;15.60;;;13.50;92.70;;;;;;5073250;28;20178;-87
2023/07/27 05:28:20;;;;;;;20.43;16.27;;;13.50;92.80;;;;;;5073685;28;20183;-88
2023/07/27 05:30:46;;;;;;;21.27;16.90;;;13.60;92.80;;;;;;5072400;28;20225;-88
2023/07/27 05:33:11;;;;;;;19.03;16.57;;;13.50;92.80;;;;;;5072279;28;20210;-88
2023/07/27 05:35:37;;;;;;;17.60;15.90;;;13.60;92.90;;;;;;5072066;28;20179;-87
2023/07/27 05:38:02;;;;;;;22.83;17.57;;;13.60;92.90;;;;;;5072077;28;20181;-88
2023/07/27 05:40:28;;;;;;;20.73;18.17;;;13.70;92.90;;;;;;5071808;28;20550;-88
2023/07/27 05:42:53;;;;;;;19.70;16.67;;;13.80;92.80;;;;;;5071774;28;20179;-88
2023/07/27 05:45:19;;;;;;;19.20;17.20;;;13.80;92.80;;;;;;5071819;28;20206;-88
2023/07/27 05:47:44;;;;;;;18.40;16.25;;;13.80;92.60;;;;;;5073046;28;20171;-88
2023/07/27 05:50:11;;;;;;;18.37;16.50;;;13.90;92.60;;;;;;5071675;28;20182;-88
2023/07/27 05:52:36;;;;;;;18.83;16.83;;;13.80;92.40;;;;;;5071675;28;20199;-88
2023/07/27 05:55:02;;;;;;;20.10;17.70;;;13.80;92.40;;;;;;5072831;28;20245;-88
2023/07/27 05:57:28;;;;;;;20.50;17.70;;;13.90;92.60;;;;;;5071709;28;20267;-88
2023/07/27 05:59:53;;;;;;;19.83;17.60;;;13.90;92.50;;;;;;5071950;28;20171;-88
2023/07/27 06:02:19;;;;;;;20.60;18.50;;;14.00;92.50;;;;;;5071773;28;20554;-87
2023/07/27 06:04:45;;;;;;;20.23;17.57;;;14.00;92.40;;;;;;5071516;28;20732;-87
2023/07/27 06:07:10;;;;;;;23.83;18.13;;;14.00;92.30;;;;;;5071694;28;20207;-88
2023/07/27 06:09:36;;;;;;;19.30;17.40;;;14.00;92.30;;;;;;5071681;28;20551;-88
2023/07/27 06:12:11;;;;;;;25.87;17.73;;;14.10;92.20;;;;;;5071461;28;20203;-88
2023/07/27 06:14:37;;;;;;;23.37;18.40;;;14.20;92.20;;;;;;5072412;28;20206;-88
2023/07/27 06:17:03;;;;;;;21.47;19.17;;;14.20;92.00;;;;;;5072792;28;20168;-88
2023/07/27 06:19:29;;;;;;;23.30;18.13;;;14.20;92.00;;;;;;5071463;28;20171;-88
2023/07/27 06:21:54;;;;;;;23.33;17.57;;;14.20;91.80;;;;;;5072728;28;20540;-86
2023/07/27 06:24:20;;;;;;;20.00;17.77;;;14.30;91.80;;;;;;5071337;28;20196;-87
2023/07/27 06:26:45;;;;;;;20.67;18.17;;;14.40;91.80;;;;;;5071363;28;20167;-86
2023/07/27 06:29:11;;;;;;;22.27;17.45;;;14.40;91.80;;;;;;5071325;28;20241;-86
2023/07/27 06:31:36;;;;;;;18.98;16.85;;;14.50;91.80;;;;;;5072514;28;20179;-86
2023/07/27 06:34:02;;;;;;;23.02;18.48;;;14.50;91.60;;;;;;5073206;28;20234;-86
2023/07/27 06:36:27;;;;;;;24.67;17.57;;;14.50;91.70;;;;;;5076106;28;20701;-87
2023/07/27 06:38:53;;;;;;;24.98;17.80;;;14.60;91.60;;;;;;5074883;28;20219;-87
2023/07/27 06:41:24;;;;;;;19.80;17.87;;;14.50;91.50;;;;;;5074703;28;20183;-87
2023/07/27 06:43:50;;;;;;;20.40;18.20;;;14.50;91.40;;;;;;5074757;28;20290;-87
2023/07/27 06:46:16;;;;;;;23.00;18.47;;;14.60;91.40;;;;;;5074759;28;20206;-87
2023/07/27 06:48:41;;;;;;;24.05;17.83;;;14.70;91.30;;;;;;5074802;28;20183;-87
2023/07/27 06:51:07;;;;;;;26.08;16.77;;;14.70;91.30;;;;;;5074737;28;20179;-86
2023/07/27 06:53:32;;;;;;;23.77;18.08;;;14.80;91.30;;;;;;5076897;28;20265;-86
2023/07/27 06:55:58;;;;;;;21.80;17.30;;;14.80;91.00;;;;;;5074555;28;20556;-86
2023/07/27 06:58:23;;;;;;;19.38;17.38;;;14.80;90.90;;;;;;5075709;28;20198;-86
2023/07/27 07:00:49;;;;;;;19.52;17.52;;;14.80;90.70;;;;;;5075948;28;20179;-86
2023/07/27 07:03:15;;;;;;;18.98;16.95;;;14.80;90.40;;;;;;5074487;28;20191;-87
2023/07/27 07:05:41;;;;;;;18.48;16.67;;;14.90;90.20;;;;;;5075645;28;20706;-86
2023/07/27 07:08:06;;;;;;;18.33;16.35;;;14.80;89.90;;;;;;5074324;28;20207;-86
2023/07/27 07:10:32;;;;;;;22.95;17.40;;;14.80;89.20;;;;;;5074246;28;20211;-85
2023/07/27 07:12:58;;;;;;;18.35;16.15;;;14.80;89.40;;;;;;5074148;28;20252;-85
2023/07/27 07:15:23;;;;;;;19.38;16.55;;;14.80;89.40;;;;;;5075370;28;20226;-86
2023/07/27 07:17:49;;;;;;;18.20;16.27;;;14.90;89.60;;;;;;5074818;28;20175;-86
2023/07/27 07:20:14;;;;;;;20.00;16.35;;;14.90;89.50;;;;;;5074116;28;20278;-86
2023/07/27 07:22:40;;;;;;;19.05;15.55;;;14.90;89.60;;;;;;5074052;28;20191;-85
2023/07/27 07:25:07;;;;;;;19.05;15.93;;;14.90;89.60;;;;;;5074081;28;20682;-86
2023/07/27 07:27:32;;;;;;;18.10;15.32;;;15.00;89.50;;;;;;5074035;28;20225;-86
2023/07/27 07:29:58;;;;;;;15.88;14.32;;;15.00;89.40;;;;;;5074005;28;20180;-86
2023/07/27 07:32:23;;;;;;;16.95;15.15;;;15.10;89.20;;;;;;5073742;28;20693;-86
2023/07/27 07:34:52;;;;;;;19.95;15.18;;;15.20;89.30;;;;;;5074262;28;20206;-86
2023/07/27 07:37:17;;;;;;;17.80;16.00;;;15.20;89.00;;;;;;5075026;28;20178;-86
2023/07/27 07:39:43;;;;;;;17.55;15.65;;;15.30;89.00;;;;;;5073724;28;20191;-86
2023/07/27 07:42:08;;;;;;;16.90;15.07;;;15.30;89.10;;;;;;5074282;28;20182;-85
2023/07/27 07:44:34;;;;;;;16.77;15.18;;;15.30;88.90;;;;;;5075044;28;20277;-86
2023/07/27 07:46:59;;;;;;;16.75;15.05;;;15.30;88.70;;;;;;5072755;28;20185;-86
2023/07/27 07:49:26;;;;;;;17.45;15.63;;;15.30;88.60;;;;;;5073579;28;20269;-86
2023/07/27 07:51:52;;;;;;;18.55;15.43;;;15.20;88.40;;;;;;5073470;28;20258;-86
2023/07/27 07:54:17;;;;;;;15.98;14.43;;;15.20;88.50;;;;;;5073429;28;20246;-86
2023/07/27 07:56:44;;;;;;;19.23;15.23;;;15.30;88.60;;;;;;5073480;28;20681;-86
2023/07/27 07:59:09;;;;;;;17.98;16.25;;;15.30;88.70;;;;;;5073337;28;20199;-86
2023/07/27 08:01:35;;;;;;;18.67;15.75;;;15.20;88.30;;;;;;5073235;28;20258;-86
2023/07/27 08:04:00;;;;;;;23.70;21.42;;;15.20;88.20;;;;;;5073079;28;20199;-85
2023/07/27 08:06:26;;;;;;;25.70;23.50;;;15.30;88.50;;;;;;5073315;28;20613;-86
2023/07/27 08:08:51;;;;;;;27.45;25.02;;;15.30;88.30;;;;;;5073666;28;20183;-86
2023/07/27 08:11:17;;;;;;;19.17;15.75;;;15.30;88.10;;;;;;5073156;28;20565;-86
2023/07/27 08:13:42;;;;;;;17.15;15.43;;;15.30;87.90;;;;;;5072940;28;20211;-86
2023/07/27 08:16:08;;;;;;;16.88;15.07;;;15.30;87.90;;;;;;5074509;28;20183;-86
2023/07/27 08:18:33;;;;;;;21.67;19.77;;;15.30;87.80;;;;;;5073383;28;20175;-85
2023/07/27 08:21:01;;;;;;;24.55;22.33;;;15.30;87.90;;;;;;5072997;28;20187;-87
2023/07/27 08:23:27;;;;;;;18.88;14.75;;;15.50;88.20;;;;;;5074062;28;20191;-86
2023/07/27 08:25:53;;;;;;;16.75;14.20;;;15.50;88.00;;;;;;5072795;28;20268;-86
2023/07/27 08:28:22;;;;;;;21.27;19.27;;;15.60;88.10;;;;;;5072837;28;20206;-86
2023/07/27 08:30:48;;;;;;;24.08;21.77;;;15.50;88.00;;;;;;5072756;28;20222;-86
2023/07/27 08:33:14;;;;;;;25.10;22.98;;;15.50;88.20;;;;;;5072466;28;20401;-86
2023/07/27 08:35:40;;;;;;;15.52;13.63;;;15.60;88.10;;;;;;5072667;28;20178;-86
2023/07/27 08:38:06;;;;;;;20.27;14.18;;;15.50;88.00;;;;;;5073763;28;20167;-86
2023/07/27 08:40:31;;;;;;;23.30;21.30;;;15.50;88.20;;;;;;5073759;28;20247;-86
2023/07/27 08:42:57;;;;;;;23.00;21.02;;;15.60;88.40;;;;;;5073719;28;20222;-86
2023/07/27 08:45:22;;;;;;;24.65;22.65;;;15.50;88.40;;;;;;5073619;28;20187;-86
2023/07/27 08:47:49;;;;;;;19.55;14.02;;;15.60;88.30;;;;;;5073584;28;20674;-86
2023/07/27 08:50:15;;;;;;;15.32;13.70;;;15.50;88.50;;;;;;5072391;28;20183;-86
2023/07/27 08:52:41;;;;;;;23.15;20.95;;;15.60;88.40;;;;;;5072220;28;20675;-86
2023/07/27 08:55:07;;;;;;;14.30;12.68;;;15.70;88.50;;;;;;5072191;28;20191;-86
2023/07/27 08:57:33;;;;;;;13.25;12.05;;;15.70;88.40;;;;;;5072182;28;20175;-85
2023/07/27 08:59:58;;;;;;;13.90;12.40;;;15.70;88.50;;;;;;5072233;28;20198;-86
2023/07/27 09:02:24;;;;;;;13.57;12.15;;;15.70;88.90;;;;;;5073078;28;20202;-85
2023/07/27 09:04:49;;;;;;;15.93;12.80;;;15.80;89.00;;;;;;5072526;28;20191;-86
2023/07/27 09:07:15;;;;;;;13.05;11.35;;;15.80;89.20;;;;;;5072164;28;20262;-86
2023/07/27 09:09:40;;;;;;;15.80;12.63;;;15.80;89.30;;;;;;5072598;28;20656;-85
2023/07/27 09:12:07;;;;;;;14.65;13.15;;;15.90;89.60;;;;;;5071896;28;20678;-85
2023/07/27 09:14:36;;;;;;;14.05;12.60;;;15.90;89.70;;;;;;5073202;28;20241;-86
2023/07/27 09:17:02;;;;;;;15.77;13.82;;;15.80;89.40;;;;;;5073596;28;20171;-86
2023/07/27 09:19:32;;;;;;;16.00;13.85;;;15.90;89.50;;;;;;5072009;28;20178;-86
2023/07/27 09:21:58;;;;;;;18.83;13.32;;;15.80;89.50;;;;;;5072097;28;20267;-87
2023/07/27 09:24:23;;;;;;;21.95;13.20;;;15.80;89.50;;;;;;5071976;28;20223;-86
2023/07/27 09:26:51;;;;;;;15.13;13.73;;;15.80;89.50;;;;;;5073108;28;20270;-87
2023/07/27 09:29:19;;;;;;;15.48;14.05;;;15.90;89.80;;;;;;5073164;28;20542;-86
2023/07/27 09:31:52;;;;;;;15.75;14.15;;;15.90;89.90;;;;;;5072249;28;20172;-86
2023/07/27 09:34:19;;;;;;;18.00;14.25;;;16.00;89.80;;;;;;5071849;28;20195;-86
2023/07/27 09:36:45;;;;;;;15.20;13.88;;;15.80;89.30;;;;;;5071850;28;20171;-87
2023/07/27 09:39:13;;;;;;;15.00;13.60;;;15.80;89.50;;;;;;5071799;28;20524;-87
2023/07/27 09:41:41;;;;;;;18.33;14.27;;;15.80;89.40;;;;;;5071917;28;20229;-87
2023/07/27 09:44:12;;;;;;;16.08;14.00;;;15.80;89.20;;;;;;5071737;28;20628;-87
2023/07/27 09:46:38;;;;;;;15.60;14.13;;;16.00;89.50;;;;;;5072603;28;20173;-87
2023/07/27 09:49:04;;;;;;;15.23;13.90;;;16.10;89.30;;;;;;5071782;28;20175;-87
2023/07/27 09:51:30;;;;;;;14.98;13.68;;;16.10;89.20;;;;;;5071725;28;20270;-88
2023/07/27 09:53:56;;;;;;;14.20;13.00;;;16.20;89.40;;;;;;5071570;28;20666;-87
2023/07/27 09:56:22;;;;;;;16.52;13.55;;;16.20;89.20;;;;;;5071826;28;20179;-87
2023/07/27 09:58:48;;;;;;;16.25;14.75;;;16.20;88.80;;;;;;5071750;28;20167;-86
2023/07/27 10:01:14;;;;;;;16.08;14.55;;;16.30;88.80;;;;;;5071532;28;20167;-88
2023/07/27 10:03:39;;;;;;;15.65;14.18;;;16.50;89.00;;;;;;5071459;28;20198;-88
2023/07/27 10:06:06;;;;;;;15.85;14.23;;;16.50;88.80;;;;;;5072825;28;20175;-87
2023/07/27 10:08:33;;;;;;;15.73;14.35;;;16.50;88.50;;;;;;5071717;28;20647;-88
2023/07/27 10:11:00;;;;;;;15.50;14.07;;;16.50;88.30;;;;;;5075333;28;20186;-88
2023/07/27 10:13:26;;;;;;;18.50;14.00;;;16.70;88.40;;;;;;5075742;28;20242;-87
2023/07/27 10:15:56;;;;;;;14.57;13.43;;;16.80;88.20;;;;;;5075515;28;20563;-87
2023/07/27 10:18:27;;;;;;;14.82;13.52;;;16.80;87.70;;;;;;5075296;28;20178;-86
2023/07/27 10:20:55;;;;;;;15.45;13.82;;;16.90;87.50;;;;;;5076395;28;20183;-87
2023/07/27 10:23:28;;;;;;;15.30;13.95;;;16.90;86.80;;;;;;5076418;28;20530;-87
2023/07/27 10:25:56;;;;;;;14.65;13.35;;;17.00;86.80;;;;;;5075406;28;20228;-87
2023/07/27 10:28:28;;;;;;;15.73;14.32;;;17.00;86.30;;;;;;5075111;28;20225;-87
2023/07/27 10:31:14;;;;;;;15.35;13.95;;;17.00;86.60;;;;;;5075015;28;20171;-87
2023/07/27 10:33:48;;;;;;;14.10;13.00;;;17.00;86.60;;;;;;5074743;28;20229;-87
2023/07/27 10:36:14;;;;;;;14.88;13.57;;;17.10;87.00;;;;;;5075004;28;20221;-86
2023/07/27 10:38:40;;;;;;;14.63;13.20;;;17.10;87.10;;;;;;5075035;28;20175;-87
2023/07/27 10:41:16;;;;;;;14.68;13.38;;;17.30;87.20;;;;;;5074894;28;20221;-86
2023/07/27 10:44:07;;;;;;;14.90;13.10;;;17.30;86.50;;;;;;5074717;28;20749;-85
2023/07/27 10:46:35;;;;;;;14.40;12.95;;;17.30;86.20;;;;;;5074799;28;20179;-86
2023/07/27 10:49:09;;;;;;;14.38;12.95;;;17.30;86.30;;;;;;5074768;28;20226;-86
2023/07/27 10:51:34;;;;;;;14.55;13.15;;;17.50;87.10;;;;;;5074602;28;20651;-86
2023/07/27 10:54:00;;;;;;;14.70;13.30;;;17.60;86.70;;;;;;5074938;28;20259;-85
2023/07/27 10:56:26;;;;;;;15.13;13.82;;;17.70;86.70;;;;;;5075857;28;20167;-86
2023/07/27 10:58:59;;;;;;;15.88;14.43;;;17.60;86.00;;;;;;5075833;28;20665;-86
2023/07/27 11:01:25;;;;;;;14.32;13.23;;;17.60;86.00;;;;;;5075851;28;20179;-85
2023/07/27 11:03:50;;;;;;;15.07;13.52;;;17.30;85.90;;;;;;5074520;28;20222;-86
2023/07/27 11:06:17;;;;;;;17.73;16.15;;;17.60;86.50;;;;;;5074561;28;20252;-86
2023/07/27 11:08:43;;;;;;;16.77;15.13;;;17.50;85.90;;;;;;5074375;28;20175;-86
2023/07/27 11:11:20;;;;;;;15.00;13.60;;;17.60;86.40;;;;;;5074301;28;20205;-86
2023/07/27 11:13:46;;;;;;;14.93;13.77;;;17.70;86.50;;;;;;5075408;28;20210;-87
2023/07/27 11:16:15;;;;;;;15.77;14.48;;;17.80;85.90;;;;;;5075739;28;20198;-88
2023/07/27 11:18:41;;;;;;;15.57;14.27;;;17.80;85.40;;;;;;5074258;28;20207;-89
2023/07/27 11:21:13;;;;;;;15.98;14.57;;;17.80;84.80;;;;;;5072842;28;20268;-89
2023/07/27 11:23:48;;;;;;;16.13;14.85;;;17.80;84.50;;;;;;5074115;28;20613;-88
2023/07/27 11:26:14;;;;;;;16.27;14.98;;;18.00;85.10;;;;;;5075601;28;20175;-87
2023/07/27 11:28:40;;;;;;;15.35;14.05;;;17.90;84.40;;;;;;5074521;28;20550;-87
2023/07/27 11:31:07;;;;;;;15.25;13.70;;;18.10;84.70;;;;;;5074264;28;20186;-88
2023/07/27 11:33:36;;;;;;;16.08;14.77;;;18.30;84.20;;;;;;5073683;28;20215;-89
2023/07/27 11:36:04;;;;;;;17.17;15.80;;;18.30;81.90;;;;;;5073905;28;20175;-87
2023/07/27 11:38:31;;;;;;;16.30;14.90;;;18.20;81.00;;;;;;5073876;28;20206;-87
2023/07/27 11:40:57;;;;;;;16.40;14.82;;;18.60;82.30;;;;;;5073871;28;20172;-88
2023/07/27 11:43:27;;;;;;;15.55;14.45;;;18.70;80.90;;;;;;5073670;28;20175;-86
2023/07/27 11:45:56;;;;;;;17.00;15.75;;;18.70;80.00;;;;;;5073863;28;20654;-86
2023/07/27 11:48:28;;;;;;;16.38;15.15;;;18.50;79.90;;;;;;5073632;28;20179;-87
2023/07/27 11:50:58;;;;;;;16.65;15.45;;;18.70;79.50;;;;;;5073621;28;20278;-86
2023/07/27 11:53:33;;;;;;;15.98;14.57;;;18.70;80.40;;;;;;5074971;28;20188;-87
2023/07/27 11:55:58;;;;;;;17.13;15.93;;;18.80;80.90;;;;;;5073690;28;20163;-87
2023/07/27 11:58:27;;;;;;;16.90;15.55;;;18.60;79.50;;;;;;5074559;28;20182;-86
2023/07/27 12:00:55;;;;;;;17.58;16.38;;;18.70;79.20;;;;;;5073333;28;20175;-86
2023/07/27 12:03:22;;;;;;;17.63;16.35;;;18.70;78.40;;;;;;5073548;28;20191;-86
2023/07/27 12:05:48;;;;;;;18.17;16.88;;;18.60;78.40;;;;;;5073825;28;20175;-86
2023/07/27 12:08:20;;;;;;;17.48;16.05;;;18.40;79.70;;;;;;5074558;28;20174;-86
2023/07/27 12:10:53;;;;;;;16.50;15.15;;;18.40;79.90;;;;;;5073239;28;20175;-86
2023/07/27 12:13:21;;;;;;;17.13;15.93;;;18.40;80.30;;;;;;5074175;28;20349;-86
2023/07/27 12:15:58;;;;;;;17.55;16.15;;;18.30;80.20;;;;;;5074314;28;20657;-86
2023/07/27 12:18:26;;;;;;;17.20;15.85;;;18.40;80.30;;;;;;5074313;28;20193;-86
2023/07/27 12:20:53;;;;;;;17.33;15.82;;;18.30;80.50;;;;;;5073182;28;20181;-86
2023/07/27 12:23:18;;;;;;;16.40;15.20;;;18.30;80.60;;;;;;5072999;28;20581;-86
2023/07/27 12:25:44;;;;;;;16.80;15.55;;;18.30;81.10;;;;;;5072703;28;20180;-86
2023/07/27 12:28:09;;;;;;;16.65;15.40;;;18.30;81.00;;;;;;5074130;28;20651;-86